メインページ
METAR-TAF:

METAR-TAF

空港 :

アタテュルク国際空港

イスタンブル-アタテュルク, トルコ

緯度: 40-58N, 経度: 028-49E, 海抜: 48m

現時点の気象観測

当レポートは49分前の10:50(UTC)に作成
の風 5kt、東/南東から西/南西の間で変化する
気温 24°C
湿度 65%
気圧 1013 hPa
視程10km以上
1,500メートル以下は雲なし、積乱雲なし

METAR: LTBA 241050Z 19005KT 120V250 CAVOK 24/17 Q1013 NOSIG RMK RWY17L 21006KT 160V250 RWY05 20004KT 160V270 RWY23 19005KT 140V230

時間: 14:39 (11:39 UTC)

予報

当レポートは6時間55分前の04:44(UTC)に作成
予報は24日の 06時(UTC)から 25日の 12時(UTC)まで有効
変向風 2kt
視程10km以上
1,500メートル以下は雲なし、積乱雲なし
24日の 20時(UTC)から 24日の 23時(UTC)まで徐々に
の風 20kt、最大30ktの突風を伴う
高度3000ftの雲は散在している

TAF: LTBA 240444Z 2406/2512 VRB02KT CAVOK BECMG 2420/2423 01020G30KT SCT030

4,000以上の空港の気象観測と天気予報(METAR報とTAF報)

利用可能な観測所は地図上に黄色い丸と赤い丸で示す。

丸の上にカーソルを重ねると観測所名を参照できる。

次にクリックすると気象観測と天気予報を参照できる。

マップの切り替え:黒色「×」印の緑ボタンをクリックして拡大、「-」印の緑ボタンをクリックして縮小、緑色の三角印をクリックして隣りの地図に切り替え


METAR-TAF: